sensor_id;sensor_type;location;lat;lon;timestamp;P1;durP1;ratioP1;P2;durP2;ratioP2
84168;SDS011;74295;50.146;8.794;2024-02-21T00:00:21;30.20;;;13.67;;
84168;SDS011;74295;50.146;8.794;2024-02-21T00:10:24;18.33;;;7.03;;
84168;SDS011;74295;50.146;8.794;2024-02-21T00:20:28;17.97;;;7.23;;
84168;SDS011;74295;50.146;8.794;2024-02-21T00:30:31;27.00;;;12.60;;
84168;SDS011;74295;50.146;8.794;2024-02-21T00:40:36;16.63;;;6.77;;
84168;SDS011;74295;50.146;8.794;2024-02-21T00:50:38;24.10;;;10.50;;
84168;SDS011;74295;50.146;8.794;2024-02-21T01:00:42;23.43;;;8.57;;
84168;SDS011;74295;50.146;8.794;2024-02-21T01:10:45;25.27;;;7.97;;
84168;SDS011;74295;50.146;8.794;2024-02-21T01:20:49;31.07;;;12.70;;
84168;SDS011;74295;50.146;8.794;2024-02-21T01:30:52;17.87;;;9.33;;
84168;SDS011;74295;50.146;8.794;2024-02-21T01:40:56;22.27;;;10.47;;
84168;SDS011;74295;50.146;8.794;2024-02-21T01:50:59;22.00;;;10.50;;
84168;SDS011;74295;50.146;8.794;2024-02-21T02:01:03;21.67;;;11.03;;
84168;SDS011;74295;50.146;8.794;2024-02-21T02:11:06;22.23;;;11.80;;
84168;SDS011;74295;50.146;8.794;2024-02-21T02:21:10;20.57;;;10.13;;
84168;SDS011;74295;50.146;8.794;2024-02-21T02:31:20;19.07;;;9.23;;
84168;SDS011;74295;50.146;8.794;2024-02-21T02:41:22;23.57;;;9.57;;
84168;SDS011;74295;50.146;8.794;2024-02-21T02:51:26;21.27;;;8.90;;
84168;SDS011;74295;50.146;8.794;2024-02-21T03:01:29;20.23;;;10.50;;
84168;SDS011;74295;50.146;8.794;2024-02-21T03:11:37;20.00;;;9.63;;
84168;SDS011;74295;50.146;8.794;2024-02-21T03:21:42;20.90;;;9.10;;
84168;SDS011;74295;50.146;8.794;2024-02-21T03:31:46;20.07;;;8.87;;
84168;SDS011;74295;50.146;8.794;2024-02-21T03:41:49;20.77;;;9.00;;
84168;SDS011;74295;50.146;8.794;2024-02-21T03:51:55;24.17;;;8.20;;
84168;SDS011;74295;50.146;8.794;2024-02-21T04:01:58;18.10;;;8.17;;
84168;SDS011;74295;50.146;8.794;2024-02-21T04:12:03;17.93;;;7.73;;
84168;SDS011;74295;50.146;8.794;2024-02-21T04:22:07;18.47;;;8.10;;
84168;SDS011;74295;50.146;8.794;2024-02-21T04:32:11;20.77;;;8.57;;
84168;SDS011;74295;50.146;8.794;2024-02-21T04:42:13;17.70;;;7.37;;
84168;SDS011;74295;50.146;8.794;2024-02-21T04:52:18;17.10;;;7.20;;
84168;SDS011;74295;50.146;8.794;2024-02-21T05:02:21;14.80;;;7.13;;
84168;SDS011;74295;50.146;8.794;2024-02-21T05:12:27;16.67;;;7.60;;
84168;SDS011;74295;50.146;8.794;2024-02-21T05:22:31;22.37;;;7.67;;
84168;SDS011;74295;50.146;8.794;2024-02-21T05:32:35;15.83;;;8.73;;
84168;SDS011;74295;50.146;8.794;2024-02-21T05:42:37;15.73;;;7.53;;
84168;SDS011;74295;50.146;8.794;2024-02-21T05:52:41;17.20;;;8.30;;
84168;SDS011;74295;50.146;8.794;2024-02-21T06:02:44;23.73;;;8.00;;
84168;SDS011;74295;50.146;8.794;2024-02-21T06:12:50;16.10;;;7.87;;
84168;SDS011;74295;50.146;8.794;2024-02-21T06:22:52;18.90;;;8.40;;
84168;SDS011;74295;50.146;8.794;2024-02-21T06:32:57;24.50;;;7.50;;
84168;SDS011;74295;50.146;8.794;2024-02-21T06:43:00;19.83;;;7.77;;
84168;SDS011;74295;50.146;8.794;2024-02-21T06:53:05;15.30;;;8.50;;
84168;SDS011;74295;50.146;8.794;2024-02-21T07:03:07;23.47;;;8.30;;
84168;SDS011;74295;50.146;8.794;2024-02-21T07:13:12;17.73;;;9.27;;
84168;SDS011;74295;50.146;8.794;2024-02-21T07:23:16;18.30;;;8.77;;
84168;SDS011;74295;50.146;8.794;2024-02-21T07:33:21;12.80;;;6.97;;
84168;SDS011;74295;50.146;8.794;2024-02-21T07:43:23;18.23;;;6.63;;
84168;SDS011;74295;50.146;8.794;2024-02-21T07:53:29;16.10;;;6.40;;
84168;SDS011;74295;50.146;8.794;2024-02-21T08:03:32;15.27;;;5.40;;
84168;SDS011;74295;50.146;8.794;2024-02-21T08:13:36;14.50;;;4.77;;
84168;SDS011;74295;50.146;8.794;2024-02-21T08:23:38;15.37;;;4.70;;
84168;SDS011;74295;50.146;8.794;2024-02-21T08:33:42;12.80;;;5.57;;
84168;SDS011;74295;50.146;8.794;2024-02-21T08:43:45;12.80;;;4.43;;
84168;SDS011;74295;50.146;8.794;2024-02-21T08:53:49;9.20;;;4.30;;
84168;SDS011;74295;50.146;8.794;2024-02-21T09:03:53;15.67;;;5.13;;
84168;SDS011;74295;50.146;8.794;2024-02-21T09:13:59;14.57;;;4.20;;
84168;SDS011;74295;50.146;8.794;2024-02-21T09:24:02;10.07;;;4.90;;
84168;SDS011;74295;50.146;8.794;2024-02-21T09:34:06;11.27;;;3.97;;
84168;SDS011;74295;50.146;8.794;2024-02-21T09:44:09;8.37;;;4.33;;
84168;SDS011;74295;50.146;8.794;2024-02-21T09:54:16;12.80;;;4.63;;
84168;SDS011;74295;50.146;8.794;2024-02-21T10:04:20;14.70;;;4.30;;
84168;SDS011;74295;50.146;8.794;2024-02-21T10:14:24;9.13;;;3.77;;
84168;SDS011;74295;50.146;8.794;2024-02-21T10:24:27;10.67;;;3.70;;
84168;SDS011;74295;50.146;8.794;2024-02-21T10:34:31;11.53;;;4.23;;
84168;SDS011;74295;50.146;8.794;2024-02-21T10:44:37;12.10;;;4.00;;
84168;SDS011;74295;50.146;8.794;2024-02-21T10:54:45;10.83;;;4.43;;
84168;SDS011;74295;50.146;8.794;2024-02-21T11:04:51;14.53;;;4.10;;
84168;SDS011;74295;50.146;8.794;2024-02-21T11:15:04;17.73;;;4.10;;
84168;SDS011;74295;50.146;8.794;2024-02-21T11:25:08;11.23;;;4.53;;
84168;SDS011;74295;50.146;8.794;2024-02-21T11:35:18;9.80;;;4.73;;
84168;SDS011;74295;50.146;8.794;2024-02-21T11:45:25;12.73;;;4.53;;
84168;SDS011;74295;50.146;8.794;2024-02-21T11:55:29;9.50;;;3.97;;
84168;SDS011;74295;50.146;8.794;2024-02-21T12:05:32;12.67;;;4.20;;
84168;SDS011;74295;50.146;8.794;2024-02-21T12:15:38;9.90;;;3.17;;
84168;SDS011;74295;50.146;8.794;2024-02-21T12:25:41;9.93;;;3.73;;
84168;SDS011;74295;50.146;8.794;2024-02-21T12:35:47;11.23;;;3.97;;
84168;SDS011;74295;50.146;8.794;2024-02-21T12:45:50;8.90;;;3.57;;
84168;SDS011;74295;50.146;8.794;2024-02-21T12:55:55;10.13;;;3.37;;
84168;SDS011;74295;50.146;8.794;2024-02-21T13:05:58;11.13;;;3.90;;
84168;SDS011;74295;50.146;8.794;2024-02-21T13:16:02;14.50;;;3.97;;
84168;SDS011;74295;50.146;8.794;2024-02-21T13:26:05;8.03;;;2.93;;
84168;SDS011;74295;50.146;8.794;2024-02-21T13:36:10;9.30;;;3.23;;
84168;SDS011;74295;50.146;8.794;2024-02-21T13:46:12;9.50;;;3.50;;
84168;SDS011;74295;50.146;8.794;2024-02-21T13:56:16;11.63;;;3.17;;
84168;SDS011;74295;50.146;8.794;2024-02-21T14:06:20;9.40;;;2.80;;
84168;SDS011;74295;50.146;8.794;2024-02-21T14:16:24;12.07;;;3.10;;
84168;SDS011;74295;50.146;8.794;2024-02-21T14:26:27;10.07;;;3.07;;
84168;SDS011;74295;50.146;8.794;2024-02-21T14:36:33;8.00;;;3.20;;
84168;SDS011;74295;50.146;8.794;2024-02-21T14:46:36;10.27;;;3.77;;
84168;SDS011;74295;50.146;8.794;2024-02-21T14:56:41;5.70;;;2.40;;
84168;SDS011;74295;50.146;8.794;2024-02-21T15:06:44;13.43;;;2.90;;
84168;SDS011;74295;50.146;8.794;2024-02-21T15:16:48;4.93;;;2.17;;
84168;SDS011;74295;50.146;8.794;2024-02-21T15:26:51;7.60;;;2.50;;
84168;SDS011;74295;50.146;8.794;2024-02-21T15:36:55;8.03;;;2.77;;
84168;SDS011;74295;50.146;8.794;2024-02-21T15:46:58;9.60;;;2.53;;
84168;SDS011;74295;50.146;8.794;2024-02-21T15:57:02;11.87;;;2.97;;
84168;SDS011;74295;50.146;8.794;2024-02-21T16:07:07;9.33;;;2.50;;
84168;SDS011;74295;50.146;8.794;2024-02-21T16:17:11;10.10;;;3.13;;
84168;SDS011;74295;50.146;8.794;2024-02-21T16:27:14;9.07;;;2.77;;
84168;SDS011;74295;50.146;8.794;2024-02-21T16:37:18;8.67;;;2.57;;
84168;SDS011;74295;50.146;8.794;2024-02-21T16:47:22;9.93;;;3.23;;
84168;SDS011;74295;50.146;8.794;2024-02-21T16:57:27;11.37;;;3.20;;
84168;SDS011;74295;50.146;8.794;2024-02-21T17:07:30;10.23;;;3.20;;
84168;SDS011;74295;50.146;8.794;2024-02-21T17:17:35;9.10;;;3.17;;
84168;SDS011;74295;50.146;8.794;2024-02-21T17:27:38;9.87;;;3.90;;
84168;SDS011;74295;50.146;8.794;2024-02-21T17:37:42;10.10;;;4.57;;
84168;SDS011;74295;50.146;8.794;2024-02-21T17:47:45;8.70;;;3.13;;
84168;SDS011;74295;50.146;8.794;2024-02-21T17:57:49;8.13;;;3.07;;
84168;SDS011;74295;50.146;8.794;2024-02-21T18:07:52;8.47;;;3.70;;
84168;SDS011;74295;50.146;8.794;2024-02-21T18:17:56;9.60;;;2.70;;
84168;SDS011;74295;50.146;8.794;2024-02-21T18:27:59;7.27;;;2.37;;
84168;SDS011;74295;50.146;8.794;2024-02-21T18:38:04;5.67;;;2.20;;
84168;SDS011;74295;50.146;8.794;2024-02-21T18:48:07;9.83;;;3.50;;
84168;SDS011;74295;50.146;8.794;2024-02-21T18:58:14;9.40;;;2.60;;
84168;SDS011;74295;50.146;8.794;2024-02-21T19:08:16;5.93;;;3.20;;
84168;SDS011;74295;50.146;8.794;2024-02-21T19:18:20;7.10;;;2.93;;
84168;SDS011;74295;50.146;8.794;2024-02-21T19:28:23;9.60;;;2.83;;
84168;SDS011;74295;50.146;8.794;2024-02-21T19:38:27;8.63;;;2.80;;
84168;SDS011;74295;50.146;8.794;2024-02-21T19:48:30;10.77;;;4.97;;
84168;SDS011;74295;50.146;8.794;2024-02-21T19:58:34;9.20;;;3.43;;
84168;SDS011;74295;50.146;8.794;2024-02-21T20:08:37;7.73;;;2.67;;
84168;SDS011;74295;50.146;8.794;2024-02-21T20:18:42;9.80;;;3.50;;
84168;SDS011;74295;50.146;8.794;2024-02-21T20:28:44;5.83;;;2.33;;
84168;SDS011;74295;50.146;8.794;2024-02-21T20:38:48;10.23;;;3.83;;
84168;SDS011;74295;50.146;8.794;2024-02-21T20:48:51;14.00;;;4.10;;
84168;SDS011;74295;50.146;8.794;2024-02-21T20:58:55;7.93;;;2.53;;
84168;SDS011;74295;50.146;8.794;2024-02-21T21:08:58;8.60;;;3.07;;
84168;SDS011;74295;50.146;8.794;2024-02-21T21:19:02;7.57;;;3.47;;
84168;SDS011;74295;50.146;8.794;2024-02-21T21:29:04;9.03;;;3.47;;
84168;SDS011;74295;50.146;8.794;2024-02-21T21:39:09;10.67;;;3.60;;
84168;SDS011;74295;50.146;8.794;2024-02-21T21:49:11;8.60;;;3.23;;
84168;SDS011;74295;50.146;8.794;2024-02-21T21:59:16;12.90;;;5.50;;
84168;SDS011;74295;50.146;8.794;2024-02-21T22:09:19;6.73;;;3.63;;
84168;SDS011;74295;50.146;8.794;2024-02-21T22:19:23;12.33;;;4.73;;
84168;SDS011;74295;50.146;8.794;2024-02-21T22:29:26;8.90;;;4.93;;
84168;SDS011;74295;50.146;8.794;2024-02-21T22:39:31;8.43;;;3.83;;
84168;SDS011;74295;50.146;8.794;2024-02-21T22:49:34;10.73;;;4.70;;
84168;SDS011;74295;50.146;8.794;2024-02-21T22:59:38;8.70;;;4.33;;
84168;SDS011;74295;50.146;8.794;2024-02-21T23:09:41;7.07;;;4.57;;
84168;SDS011;74295;50.146;8.794;2024-02-21T23:19:45;7.97;;;4.20;;
84168;SDS011;74295;50.146;8.794;2024-02-21T23:29:47;11.63;;;6.20;;
84168;SDS011;74295;50.146;8.794;2024-02-21T23:39:51;10.37;;;5.00;;
84168;SDS011;74295;50.146;8.794;2024-02-21T23:49:54;10.00;;;6.53;;
